sensor_id;sensor_type;location;lat;lon;timestamp;P1;durP1;ratioP1;P2;durP2;ratioP2
52480;SDS011;38393;52.404;13.532;2023-07-09T00:02:24;6.03;;;3.58;;
52480;SDS011;38393;52.404;13.532;2023-07-09T00:04:51;5.32;;;3.67;;
52480;SDS011;38393;52.404;13.532;2023-07-09T00:07:27;9.48;;;3.67;;
52480;SDS011;38393;52.404;13.532;2023-07-09T00:09:55;5.38;;;3.70;;
52480;SDS011;38393;52.404;13.532;2023-07-09T00:12:21;6.78;;;3.92;;
52480;SDS011;38393;52.404;13.532;2023-07-09T00:14:47;9.13;;;3.90;;
52480;SDS011;38393;52.404;13.532;2023-07-09T00:17:23;4.43;;;3.83;;
52480;SDS011;38393;52.404;13.532;2023-07-09T00:19:55;7.40;;;3.83;;
52480;SDS011;38393;52.404;13.532;2023-07-09T00:22:21;4.82;;;3.70;;
52480;SDS011;38393;52.404;13.532;2023-07-09T00:24:49;4.93;;;3.72;;
52480;SDS011;38393;52.404;13.532;2023-07-09T00:27:19;6.10;;;3.90;;
52480;SDS011;38393;52.404;13.532;2023-07-09T00:29:45;7.05;;;3.90;;
52480;SDS011;38393;52.404;13.532;2023-07-09T00:32:15;8.13;;;4.20;;
52480;SDS011;38393;52.404;13.532;2023-07-09T00:34:42;9.25;;;4.03;;
52480;SDS011;38393;52.404;13.532;2023-07-09T00:37:13;5.53;;;3.80;;
52480;SDS011;38393;52.404;13.532;2023-07-09T00:39:43;7.85;;;3.50;;
52480;SDS011;38393;52.404;13.532;2023-07-09T00:42:13;7.45;;;3.83;;
52480;SDS011;38393;52.404;13.532;2023-07-09T00:44:42;6.85;;;4.10;;
52480;SDS011;38393;52.404;13.532;2023-07-09T00:50:06;7.05;;;3.55;;
52480;SDS011;38393;52.404;13.532;2023-07-09T00:52:38;6.03;;;3.88;;
52480;SDS011;38393;52.404;13.532;2023-07-09T00:55:10;7.00;;;3.88;;
52480;SDS011;38393;52.404;13.532;2023-07-09T00:57:39;9.13;;;3.88;;
52480;SDS011;38393;52.404;13.532;2023-07-09T01:00:07;8.35;;;3.60;;
52480;SDS011;38393;52.404;13.532;2023-07-09T01:02:41;5.63;;;3.80;;
52480;SDS011;38393;52.404;13.532;2023-07-09T01:05:11;10.63;;;4.20;;
52480;SDS011;38393;52.404;13.532;2023-07-09T01:07:39;5.57;;;4.07;;
52480;SDS011;38393;52.404;13.532;2023-07-09T01:10:05;8.48;;;4.07;;
52480;SDS011;38393;52.404;13.532;2023-07-09T01:12:31;5.40;;;3.92;;
52480;SDS011;38393;52.404;13.532;2023-07-09T01:14:57;5.53;;;3.97;;
52480;SDS011;38393;52.404;13.532;2023-07-09T01:17:24;8.63;;;4.28;;
52480;SDS011;38393;52.404;13.532;2023-07-09T01:19:54;6.80;;;3.80;;
52480;SDS011;38393;52.404;13.532;2023-07-09T01:22:21;6.38;;;4.10;;
52480;SDS011;38393;52.404;13.532;2023-07-09T01:24:55;7.03;;;4.07;;
52480;SDS011;38393;52.404;13.532;2023-07-09T01:27:37;7.03;;;3.88;;
52480;SDS011;38393;52.404;13.532;2023-07-09T01:30:09;8.48;;;4.60;;
52480;SDS011;38393;52.404;13.532;2023-07-09T01:32:37;5.55;;;3.63;;
52480;SDS011;38393;52.404;13.532;2023-07-09T01:35:04;6.40;;;4.18;;
52480;SDS011;38393;52.404;13.532;2023-07-09T01:37:32;7.45;;;4.20;;
52480;SDS011;38393;52.404;13.532;2023-07-09T01:39:59;6.15;;;3.88;;
52480;SDS011;38393;52.404;13.532;2023-07-09T01:42:25;5.55;;;4.10;;
52480;SDS011;38393;52.404;13.532;2023-07-09T01:44:53;7.22;;;4.40;;
52480;SDS011;38393;52.404;13.532;2023-07-09T01:47:19;5.20;;;3.88;;
52480;SDS011;38393;52.404;13.532;2023-07-09T01:49:45;8.10;;;4.28;;
52480;SDS011;38393;52.404;13.532;2023-07-09T01:52:11;7.05;;;4.13;;
52480;SDS011;38393;52.404;13.532;2023-07-09T01:54:38;6.00;;;4.35;;
52480;SDS011;38393;52.404;13.532;2023-07-09T01:57:15;5.53;;;4.40;;
52480;SDS011;38393;52.404;13.532;2023-07-09T01:59:47;6.72;;;4.28;;
52480;SDS011;38393;52.404;13.532;2023-07-09T02:02:17;5.38;;;4.28;;
52480;SDS011;38393;52.404;13.532;2023-07-09T02:04:47;5.25;;;4.10;;
52480;SDS011;38393;52.404;13.532;2023-07-09T02:07:14;7.03;;;4.93;;
52480;SDS011;38393;52.404;13.532;2023-07-09T02:09:40;6.72;;;4.60;;
52480;SDS011;38393;52.404;13.532;2023-07-09T02:12:06;7.63;;;4.28;;
52480;SDS011;38393;52.404;13.532;2023-07-09T02:14:32;8.68;;;4.25;;
52480;SDS011;38393;52.404;13.532;2023-07-09T02:16:57;9.20;;;4.30;;
52480;SDS011;38393;52.404;13.532;2023-07-09T02:19:23;10.02;;;4.63;;
52480;SDS011;38393;52.404;13.532;2023-07-09T02:21:48;7.70;;;4.53;;
52480;SDS011;38393;52.404;13.532;2023-07-09T02:24:13;8.75;;;4.53;;
52480;SDS011;38393;52.404;13.532;2023-07-09T02:26:39;6.25;;;4.28;;
52480;SDS011;38393;52.404;13.532;2023-07-09T02:29:05;9.25;;;4.60;;
52480;SDS011;38393;52.404;13.532;2023-07-09T02:31:31;7.70;;;4.80;;
52480;SDS011;38393;52.404;13.532;2023-07-09T02:33:58;7.88;;;4.43;;
52480;SDS011;38393;52.404;13.532;2023-07-09T02:36:24;9.50;;;4.30;;
52480;SDS011;38393;52.404;13.532;2023-07-09T02:38:50;5.38;;;4.15;;
52480;SDS011;38393;52.404;13.532;2023-07-09T02:41:16;7.22;;;4.60;;
52480;SDS011;38393;52.404;13.532;2023-07-09T02:43:41;6.75;;;4.32;;
52480;SDS011;38393;52.404;13.532;2023-07-09T02:46:07;6.95;;;4.57;;
52480;SDS011;38393;52.404;13.532;2023-07-09T02:48:32;7.18;;;4.70;;
52480;SDS011;38393;52.404;13.532;2023-07-09T02:50:58;6.65;;;4.68;;
52480;SDS011;38393;52.404;13.532;2023-07-09T02:53:23;6.00;;;4.28;;
52480;SDS011;38393;52.404;13.532;2023-07-09T02:55:49;6.35;;;4.50;;
52480;SDS011;38393;52.404;13.532;2023-07-09T02:58:14;8.57;;;5.10;;
52480;SDS011;38393;52.404;13.532;2023-07-09T03:00:40;8.02;;;4.63;;
52480;SDS011;38393;52.404;13.532;2023-07-09T03:03:05;7.05;;;5.18;;
52480;SDS011;38393;52.404;13.532;2023-07-09T03:05:31;7.20;;;5.05;;
52480;SDS011;38393;52.404;13.532;2023-07-09T03:07:56;8.52;;;4.95;;
52480;SDS011;38393;52.404;13.532;2023-07-09T03:10:22;7.47;;;4.97;;
52480;SDS011;38393;52.404;13.532;2023-07-09T03:12:47;6.65;;;4.80;;
52480;SDS011;38393;52.404;13.532;2023-07-09T03:15:13;8.00;;;4.90;;
52480;SDS011;38393;52.404;13.532;2023-07-09T03:17:38;13.68;;;5.85;;
52480;SDS011;38393;52.404;13.532;2023-07-09T03:20:04;9.38;;;5.00;;
52480;SDS011;38393;52.404;13.532;2023-07-09T03:22:30;9.40;;;4.90;;
52480;SDS011;38393;52.404;13.532;2023-07-09T03:24:56;6.40;;;5.00;;
52480;SDS011;38393;52.404;13.532;2023-07-09T03:27:21;7.63;;;5.43;;
52480;SDS011;38393;52.404;13.532;2023-07-09T03:29:47;9.05;;;5.50;;
52480;SDS011;38393;52.404;13.532;2023-07-09T03:32:12;9.93;;;5.22;;
52480;SDS011;38393;52.404;13.532;2023-07-09T03:34:38;9.63;;;5.30;;
52480;SDS011;38393;52.404;13.532;2023-07-09T03:37:03;7.45;;;5.38;;
52480;SDS011;38393;52.404;13.532;2023-07-09T03:39:29;9.18;;;5.18;;
52480;SDS011;38393;52.404;13.532;2023-07-09T03:41:54;8.10;;;5.10;;
52480;SDS011;38393;52.404;13.532;2023-07-09T03:44:20;9.85;;;5.50;;
52480;SDS011;38393;52.404;13.532;2023-07-09T03:46:45;10.93;;;5.50;;
52480;SDS011;38393;52.404;13.532;2023-07-09T03:49:11;9.80;;;5.05;;
52480;SDS011;38393;52.404;13.532;2023-07-09T03:51:36;7.15;;;5.25;;
52480;SDS011;38393;52.404;13.532;2023-07-09T03:54:02;6.97;;;5.30;;
52480;SDS011;38393;52.404;13.532;2023-07-09T03:56:27;6.43;;;4.82;;
52480;SDS011;38393;52.404;13.532;2023-07-09T03:58:53;9.20;;;6.30;;
52480;SDS011;38393;52.404;13.532;2023-07-09T04:01:19;9.00;;;5.40;;
52480;SDS011;38393;52.404;13.532;2023-07-09T04:03:45;9.65;;;5.53;;
52480;SDS011;38393;52.404;13.532;2023-07-09T04:06:10;9.02;;;5.43;;
52480;SDS011;38393;52.404;13.532;2023-07-09T04:08:36;6.93;;;5.10;;
52480;SDS011;38393;52.404;13.532;2023-07-09T04:11:02;9.95;;;5.50;;
52480;SDS011;38393;52.404;13.532;2023-07-09T04:13:28;7.53;;;5.40;;
52480;SDS011;38393;52.404;13.532;2023-07-09T04:15:54;8.27;;;5.63;;
52480;SDS011;38393;52.404;13.532;2023-07-09T04:18:20;11.10;;;5.60;;
52480;SDS011;38393;52.404;13.532;2023-07-09T04:20:49;10.93;;;5.95;;
52480;SDS011;38393;52.404;13.532;2023-07-09T04:23:15;10.18;;;5.18;;
52480;SDS011;38393;52.404;13.532;2023-07-09T04:25:42;8.02;;;5.45;;
52480;SDS011;38393;52.404;13.532;2023-07-09T04:28:07;15.88;;;5.72;;
52480;SDS011;38393;52.404;13.532;2023-07-09T04:30:32;6.88;;;5.07;;
52480;SDS011;38393;52.404;13.532;2023-07-09T04:32:58;11.10;;;7.47;;
52480;SDS011;38393;52.404;13.532;2023-07-09T04:35:23;7.43;;;5.13;;
52480;SDS011;38393;52.404;13.532;2023-07-09T04:37:49;8.48;;;5.18;;
52480;SDS011;38393;52.404;13.532;2023-07-09T04:40:17;7.35;;;5.60;;
52480;SDS011;38393;52.404;13.532;2023-07-09T04:42:43;10.07;;;5.40;;
52480;SDS011;38393;52.404;13.532;2023-07-09T04:45:09;7.00;;;5.18;;
52480;SDS011;38393;52.404;13.532;2023-07-09T04:47:37;11.25;;;5.05;;
52480;SDS011;38393;52.404;13.532;2023-07-09T04:50:06;6.55;;;4.65;;
52480;SDS011;38393;52.404;13.532;2023-07-09T04:52:33;6.97;;;5.05;;
52480;SDS011;38393;52.404;13.532;2023-07-09T04:54:58;6.53;;;4.72;;
52480;SDS011;38393;52.404;13.532;2023-07-09T04:57:24;6.65;;;5.03;;
52480;SDS011;38393;52.404;13.532;2023-07-09T04:59:51;7.13;;;4.68;;
52480;SDS011;38393;52.404;13.532;2023-07-09T05:02:16;7.82;;;4.85;;
52480;SDS011;38393;52.404;13.532;2023-07-09T05:04:42;6.15;;;4.85;;
52480;SDS011;38393;52.404;13.532;2023-07-09T05:07:07;6.10;;;4.38;;
52480;SDS011;38393;52.404;13.532;2023-07-09T05:09:33;7.22;;;4.93;;
52480;SDS011;38393;52.404;13.532;2023-07-09T05:11:59;8.73;;;4.60;;
52480;SDS011;38393;52.404;13.532;2023-07-09T05:14:25;6.35;;;4.30;;
52480;SDS011;38393;52.404;13.532;2023-07-09T05:16:54;7.00;;;4.72;;
52480;SDS011;38393;52.404;13.532;2023-07-09T05:19:19;8.20;;;4.93;;
52480;SDS011;38393;52.404;13.532;2023-07-09T05:21:45;6.53;;;4.45;;
52480;SDS011;38393;52.404;13.532;2023-07-09T05:24:10;6.18;;;4.68;;
52480;SDS011;38393;52.404;13.532;2023-07-09T05:26:36;8.35;;;5.10;;
52480;SDS011;38393;52.404;13.532;2023-07-09T05:29:02;8.68;;;5.28;;
52480;SDS011;38393;52.404;13.532;2023-07-09T05:31:29;7.28;;;4.72;;
52480;SDS011;38393;52.404;13.532;2023-07-09T05:33:55;8.55;;;4.90;;
52480;SDS011;38393;52.404;13.532;2023-07-09T05:36:20;5.90;;;4.45;;
52480;SDS011;38393;52.404;13.532;2023-07-09T05:38:46;6.68;;;4.68;;
52480;SDS011;38393;52.404;13.532;2023-07-09T05:41:12;9.68;;;4.60;;
52480;SDS011;38393;52.404;13.532;2023-07-09T05:43:37;6.13;;;4.20;;
52480;SDS011;38393;52.404;13.532;2023-07-09T05:46:04;7.55;;;4.63;;
52480;SDS011;38393;52.404;13.532;2023-07-09T05:48:30;5.70;;;4.30;;
52480;SDS011;38393;52.404;13.532;2023-07-09T05:50:56;6.68;;;4.53;;
52480;SDS011;38393;52.404;13.532;2023-07-09T05:53:22;5.47;;;4.30;;
52480;SDS011;38393;52.404;13.532;2023-07-09T05:55:48;6.60;;;4.57;;
52480;SDS011;38393;52.404;13.532;2023-07-09T05:58:13;7.07;;;4.10;;
52480;SDS011;38393;52.404;13.532;2023-07-09T06:00:39;7.28;;;4.43;;
52480;SDS011;38393;52.404;13.532;2023-07-09T06:03:06;5.57;;;4.00;;
52480;SDS011;38393;52.404;13.532;2023-07-09T06:05:32;8.60;;;4.07;;
52480;SDS011;38393;52.404;13.532;2023-07-09T06:07:58;5.68;;;4.30;;
52480;SDS011;38393;52.404;13.532;2023-07-09T06:10:24;5.53;;;4.47;;
52480;SDS011;38393;52.404;13.532;2023-07-09T06:12:49;6.75;;;4.60;;
52480;SDS011;38393;52.404;13.532;2023-07-09T06:15:15;6.97;;;4.25;;
52480;SDS011;38393;52.404;13.532;2023-07-09T06:17:40;5.85;;;4.20;;
52480;SDS011;38393;52.404;13.532;2023-07-09T06:20:07;5.97;;;4.32;;
52480;SDS011;38393;52.404;13.532;2023-07-09T06:22:33;8.48;;;4.70;;
52480;SDS011;38393;52.404;13.532;2023-07-09T06:24:58;6.00;;;4.10;;
52480;SDS011;38393;52.404;13.532;2023-07-09T06:27:25;7.35;;;4.25;;
52480;SDS011;38393;52.404;13.532;2023-07-09T06:29:50;8.40;;;4.53;;
52480;SDS011;38393;52.404;13.532;2023-07-09T06:32:16;5.68;;;4.15;;
52480;SDS011;38393;52.404;13.532;2023-07-09T06:34:41;9.30;;;4.57;;
52480;SDS011;38393;52.404;13.532;2023-07-09T06:37:07;5.97;;;4.45;;
52480;SDS011;38393;52.404;13.532;2023-07-09T06:39:32;7.55;;;4.63;;
52480;SDS011;38393;52.404;13.532;2023-07-09T06:41:58;8.68;;;4.28;;
52480;SDS011;38393;52.404;13.532;2023-07-09T06:44:23;5.63;;;4.30;;
52480;SDS011;38393;52.404;13.532;2023-07-09T06:46:50;6.22;;;4.45;;
52480;SDS011;38393;52.404;13.532;2023-07-09T06:49:16;6.25;;;4.30;;
52480;SDS011;38393;52.404;13.532;2023-07-09T06:51:41;6.47;;;4.20;;
52480;SDS011;38393;52.404;13.532;2023-07-09T06:54:07;4.85;;;4.15;;
52480;SDS011;38393;52.404;13.532;2023-07-09T06:56:33;5.07;;;3.92;;
52480;SDS011;38393;52.404;13.532;2023-07-09T06:58:59;8.55;;;4.43;;
52480;SDS011;38393;52.404;13.532;2023-07-09T07:01:24;5.95;;;4.55;;
52480;SDS011;38393;52.404;13.532;2023-07-09T07:03:50;6.60;;;4.68;;
52480;SDS011;38393;52.404;13.532;2023-07-09T07:06:16;6.22;;;4.35;;
52480;SDS011;38393;52.404;13.532;2023-07-09T07:08:41;5.50;;;4.50;;
52480;SDS011;38393;52.404;13.532;2023-07-09T07:11:07;6.22;;;4.10;;
52480;SDS011;38393;52.404;13.532;2023-07-09T07:13:33;7.82;;;3.85;;
52480;SDS011;38393;52.404;13.532;2023-07-09T07:16:01;6.28;;;4.30;;
52480;SDS011;38393;52.404;13.532;2023-07-09T07:18:27;8.90;;;4.47;;
52480;SDS011;38393;52.404;13.532;2023-07-09T07:20:53;6.57;;;3.97;;
52480;SDS011;38393;52.404;13.532;2023-07-09T07:23:19;6.72;;;4.47;;
52480;SDS011;38393;52.404;13.532;2023-07-09T07:25:45;9.43;;;4.65;;
52480;SDS011;38393;52.404;13.532;2023-07-09T07:28:11;5.53;;;4.30;;
52480;SDS011;38393;52.404;13.532;2023-07-09T07:30:36;9.23;;;4.85;;
52480;SDS011;38393;52.404;13.532;2023-07-09T07:33:02;6.47;;;4.57;;
52480;SDS011;38393;52.404;13.532;2023-07-09T07:35:28;11.32;;;4.78;;
52480;SDS011;38393;52.404;13.532;2023-07-09T07:37:53;9.65;;;4.82;;
52480;SDS011;38393;52.404;13.532;2023-07-09T07:40:19;5.05;;;4.55;;
52480;SDS011;38393;52.404;13.532;2023-07-09T07:42:44;6.10;;;4.65;;
52480;SDS011;38393;52.404;13.532;2023-07-09T07:45:10;5.57;;;4.40;;
52480;SDS011;38393;52.404;13.532;2023-07-09T07:47:36;6.65;;;4.80;;
52480;SDS011;38393;52.404;13.532;2023-07-09T07:50:01;8.18;;;4.57;;
52480;SDS011;38393;52.404;13.532;2023-07-09T07:52:27;9.95;;;4.40;;
52480;SDS011;38393;52.404;13.532;2023-07-09T07:54:53;8.07;;;4.72;;
52480;SDS011;38393;52.404;13.532;2023-07-09T07:57:19;7.50;;;4.60;;
52480;SDS011;38393;52.404;13.532;2023-07-09T07:59:46;7.32;;;4.53;;
52480;SDS011;38393;52.404;13.532;2023-07-09T08:02:12;7.80;;;4.53;;
52480;SDS011;38393;52.404;13.532;2023-07-09T08:04:39;7.63;;;4.57;;
52480;SDS011;38393;52.404;13.532;2023-07-09T08:07:07;7.15;;;4.65;;
52480;SDS011;38393;52.404;13.532;2023-07-09T08:09:34;5.32;;;4.18;;
52480;SDS011;38393;52.404;13.532;2023-07-09T08:12:00;6.80;;;4.45;;
52480;SDS011;38393;52.404;13.532;2023-07-09T08:14:26;6.13;;;4.15;;
52480;SDS011;38393;52.404;13.532;2023-07-09T08:16:51;6.45;;;4.38;;
52480;SDS011;38393;52.404;13.532;2023-07-09T08:19:18;7.72;;;4.18;;
52480;SDS011;38393;52.404;13.532;2023-07-09T08:21:44;8.10;;;4.10;;
52480;SDS011;38393;52.404;13.532;2023-07-09T08:24:10;6.70;;;4.47;;
52480;SDS011;38393;52.404;13.532;2023-07-09T08:26:35;8.93;;;4.57;;
52480;SDS011;38393;52.404;13.532;2023-07-09T08:29:02;5.90;;;4.40;;
52480;SDS011;38393;52.404;13.532;2023-07-09T08:31:28;4.82;;;4.22;;
52480;SDS011;38393;52.404;13.532;2023-07-09T08:33:54;5.10;;;3.95;;
52480;SDS011;38393;52.404;13.532;2023-07-09T08:36:19;4.88;;;4.07;;
52480;SDS011;38393;52.404;13.532;2023-07-09T08:38:45;5.07;;;4.15;;
52480;SDS011;38393;52.404;13.532;2023-07-09T08:49:33;5.57;;;4.00;;
52480;SDS011;38393;52.404;13.532;2023-07-09T08:52:18;7.40;;;4.35;;
52480;SDS011;38393;52.404;13.532;2023-07-09T08:55:02;5.03;;;3.90;;
52480;SDS011;38393;52.404;13.532;2023-07-09T08:57:33;6.28;;;4.00;;
52480;SDS011;38393;52.404;13.532;2023-07-09T09:00:11;7.63;;;3.75;;
52480;SDS011;38393;52.404;13.532;2023-07-09T09:02:52;6.18;;;4.13;;
52480;SDS011;38393;52.404;13.532;2023-07-09T09:05:23;6.38;;;4.25;;
52480;SDS011;38393;52.404;13.532;2023-07-09T09:08:02;5.47;;;4.38;;
52480;SDS011;38393;52.404;13.532;2023-07-09T09:10:42;5.20;;;3.80;;
52480;SDS011;38393;52.404;13.532;2023-07-09T09:13:13;5.18;;;4.00;;
52480;SDS011;38393;52.404;13.532;2023-07-09T09:15:41;4.28;;;3.88;;
52480;SDS011;38393;52.404;13.532;2023-07-09T09:18:20;10.30;;;4.57;;
52480;SDS011;38393;52.404;13.532;2023-07-09T09:20:53;6.50;;;4.32;;
52480;SDS011;38393;52.404;13.532;2023-07-09T09:23:22;7.30;;;4.07;;
52480;SDS011;38393;52.404;13.532;2023-07-09T09:25:52;6.90;;;4.07;;
52480;SDS011;38393;52.404;13.532;2023-07-09T09:28:20;5.00;;;3.83;;
52480;SDS011;38393;52.404;13.532;2023-07-09T09:30:47;5.93;;;3.95;;
52480;SDS011;38393;52.404;13.532;2023-07-09T09:33:13;7.00;;;3.67;;
52480;SDS011;38393;52.404;13.532;2023-07-09T09:35:42;12.82;;;4.03;;
52480;SDS011;38393;52.404;13.532;2023-07-09T09:38:10;4.30;;;3.90;;
52480;SDS011;38393;52.404;13.532;2023-07-09T09:40:37;7.32;;;3.90;;
52480;SDS011;38393;52.404;13.532;2023-07-09T09:43:08;7.53;;;4.30;;
52480;SDS011;38393;52.404;13.532;2023-07-09T09:45:38;7.07;;;4.70;;
52480;SDS011;38393;52.404;13.532;2023-07-09T09:48:10;7.45;;;3.60;;
52480;SDS011;38393;52.404;13.532;2023-07-09T09:50:55;7.38;;;3.58;;
52480;SDS011;38393;52.404;13.532;2023-07-09T09:53:28;5.30;;;4.20;;
52480;SDS011;38393;52.404;13.532;2023-07-09T09:55:55;4.82;;;3.58;;
52480;SDS011;38393;52.404;13.532;2023-07-09T09:58:25;6.35;;;3.60;;
52480;SDS011;38393;52.404;13.532;2023-07-09T10:00:54;4.45;;;3.83;;
52480;SDS011;38393;52.404;13.532;2023-07-09T10:03:32;5.43;;;3.88;;
52480;SDS011;38393;52.404;13.532;2023-07-09T10:06:10;5.60;;;3.70;;
52480;SDS011;38393;52.404;13.532;2023-07-09T10:08:54;7.80;;;3.60;;
52480;SDS011;38393;52.404;13.532;2023-07-09T10:14:23;7.53;;;3.60;;
52480;SDS011;38393;52.404;13.532;2023-07-09T10:17:15;5.65;;;4.07;;
52480;SDS011;38393;52.404;13.532;2023-07-09T10:19:53;7.75;;;4.28;;
52480;SDS011;38393;52.404;13.532;2023-07-09T10:25:12;5.63;;;4.55;;
52480;SDS011;38393;52.404;13.532;2023-07-09T10:27:48;8.38;;;4.50;;
52480;SDS011;38393;52.404;13.532;2023-07-09T10:33:31;7.47;;;3.85;;
52480;SDS011;38393;52.404;13.532;2023-07-09T10:36:22;5.43;;;4.40;;
52480;SDS011;38393;52.404;13.532;2023-07-09T10:39:06;5.40;;;4.47;;
52480;SDS011;38393;52.404;13.532;2023-07-09T10:41:35;6.80;;;4.38;;
52480;SDS011;38393;52.404;13.532;2023-07-09T10:44:11;6.50;;;4.15;;
52480;SDS011;38393;52.404;13.532;2023-07-09T10:46:49;7.65;;;5.10;;
52480;SDS011;38393;52.404;13.532;2023-07-09T10:49:30;5.25;;;4.03;;
52480;SDS011;38393;52.404;13.532;2023-07-09T10:52:07;5.90;;;4.28;;
52480;SDS011;38393;52.404;13.532;2023-07-09T10:55:05;4.63;;;4.10;;
52480;SDS011;38393;52.404;13.532;2023-07-09T11:00:17;7.97;;;5.57;;
52480;SDS011;38393;52.404;13.532;2023-07-09T11:02:45;6.07;;;4.93;;
52480;SDS011;38393;52.404;13.532;2023-07-09T11:05:12;4.90;;;3.80;;
52480;SDS011;38393;52.404;13.532;2023-07-09T11:07:41;6.22;;;3.90;;
52480;SDS011;38393;52.404;13.532;2023-07-09T11:10:36;6.45;;;3.58;;
52480;SDS011;38393;52.404;13.532;2023-07-09T11:13:13;9.25;;;4.00;;
52480;SDS011;38393;52.404;13.532;2023-07-09T11:15:44;6.22;;;3.70;;
52480;SDS011;38393;52.404;13.532;2023-07-09T11:18:13;6.00;;;3.53;;
52480;SDS011;38393;52.404;13.532;2023-07-09T11:20:46;6.30;;;3.63;;
52480;SDS011;38393;52.404;13.532;2023-07-09T11:23:21;6.72;;;3.30;;
52480;SDS011;38393;52.404;13.532;2023-07-09T11:26:01;5.75;;;3.83;;
52480;SDS011;38393;52.404;13.532;2023-07-09T11:28:35;7.07;;;3.63;;
52480;SDS011;38393;52.404;13.532;2023-07-09T11:33:49;6.20;;;3.88;;
52480;SDS011;38393;52.404;13.532;2023-07-09T11:36:27;4.80;;;3.92;;
52480;SDS011;38393;52.404;13.532;2023-07-09T11:38:54;5.72;;;4.40;;
52480;SDS011;38393;52.404;13.532;2023-07-09T11:41:39;5.45;;;3.78;;
52480;SDS011;38393;52.404;13.532;2023-07-09T11:46:45;4.38;;;3.85;;
52480;SDS011;38393;52.404;13.532;2023-07-09T11:49:34;6.85;;;3.80;;
52480;SDS011;38393;52.404;13.532;2023-07-09T11:52:10;8.75;;;3.80;;
52480;SDS011;38393;52.404;13.532;2023-07-09T11:54:37;6.93;;;3.83;;
52480;SDS011;38393;52.404;13.532;2023-07-09T11:57:05;4.97;;;3.67;;
52480;SDS011;38393;52.404;13.532;2023-07-09T11:59:42;6.18;;;3.60;;
52480;SDS011;38393;52.404;13.532;2023-07-09T12:02:13;6.05;;;3.50;;
52480;SDS011;38393;52.404;13.532;2023-07-09T12:04:42;7.75;;;4.20;;
52480;SDS011;38393;52.404;13.532;2023-07-09T12:07:09;6.15;;;4.05;;
52480;SDS011;38393;52.404;13.532;2023-07-09T12:09:39;8.00;;;4.13;;
52480;SDS011;38393;52.404;13.532;2023-07-09T12:12:16;9.32;;;4.22;;
52480;SDS011;38393;52.404;13.532;2023-07-09T12:14:49;8.25;;;4.32;;
52480;SDS011;38393;52.404;13.532;2023-07-09T12:17:14;5.13;;;4.03;;
52480;SDS011;38393;52.404;13.532;2023-07-09T12:19:40;7.18;;;3.83;;
52480;SDS011;38393;52.404;13.532;2023-07-09T12:22:06;7.22;;;5.72;;
52480;SDS011;38393;52.404;13.532;2023-07-09T12:24:44;4.43;;;3.83;;
52480;SDS011;38393;52.404;13.532;2023-07-09T12:27:19;5.43;;;4.40;;
52480;SDS011;38393;52.404;13.532;2023-07-09T12:29:46;7.32;;;4.68;;
52480;SDS011;38393;52.404;13.532;2023-07-09T12:32:13;5.88;;;4.45;;
52480;SDS011;38393;52.404;13.532;2023-07-09T12:34:41;4.75;;;4.07;;
52480;SDS011;38393;52.404;13.532;2023-07-09T12:37:11;5.88;;;4.00;;
52480;SDS011;38393;52.404;13.532;2023-07-09T12:39:39;6.97;;;4.55;;
52480;SDS011;38393;52.404;13.532;2023-07-09T12:42:04;6.10;;;4.30;;
52480;SDS011;38393;52.404;13.532;2023-07-09T12:44:37;5.13;;;4.38;;
52480;SDS011;38393;52.404;13.532;2023-07-09T12:47:03;6.30;;;4.20;;
52480;SDS011;38393;52.404;13.532;2023-07-09T12:49:30;7.53;;;5.80;;
52480;SDS011;38393;52.404;13.532;2023-07-09T12:52:02;8.07;;;4.50;;
52480;SDS011;38393;52.404;13.532;2023-07-09T12:54:34;7.18;;;4.07;;
52480;SDS011;38393;52.404;13.532;2023-07-09T12:56:59;5.40;;;4.53;;
52480;SDS011;38393;52.404;13.532;2023-07-09T12:59:26;6.60;;;4.25;;
52480;SDS011;38393;52.404;13.532;2023-07-09T13:02:04;5.75;;;4.20;;
52480;SDS011;38393;52.404;13.532;2023-07-09T13:04:33;7.32;;;4.40;;
52480;SDS011;38393;52.404;13.532;2023-07-09T13:07:01;8.18;;;4.18;;
52480;SDS011;38393;52.404;13.532;2023-07-09T13:09:27;9.10;;;3.97;;
52480;SDS011;38393;52.404;13.532;2023-07-09T13:11:56;5.45;;;4.63;;
52480;SDS011;38393;52.404;13.532;2023-07-09T13:14:27;7.85;;;4.55;;
52480;SDS011;38393;52.404;13.532;2023-07-09T13:17:05;7.18;;;4.53;;
52480;SDS011;38393;52.404;13.532;2023-07-09T13:19:32;8.50;;;4.95;;
52480;SDS011;38393;52.404;13.532;2023-07-09T13:21:58;9.52;;;5.07;;
52480;SDS011;38393;52.404;13.532;2023-07-09T13:24:24;4.55;;;3.90;;
52480;SDS011;38393;52.404;13.532;2023-07-09T13:26:53;7.25;;;4.72;;
52480;SDS011;38393;52.404;13.532;2023-07-09T13:29:19;6.28;;;4.00;;
52480;SDS011;38393;52.404;13.532;2023-07-09T13:31:45;6.45;;;4.00;;
52480;SDS011;38393;52.404;13.532;2023-07-09T13:34:24;8.13;;;4.30;;
52480;SDS011;38393;52.404;13.532;2023-07-09T13:36:53;6.18;;;4.28;;
52480;SDS011;38393;52.404;13.532;2023-07-09T13:39:21;6.00;;;4.20;;
52480;SDS011;38393;52.404;13.532;2023-07-09T13:41:47;7.85;;;4.05;;
52480;SDS011;38393;52.404;13.532;2023-07-09T13:44:15;7.60;;;4.63;;
52480;SDS011;38393;52.404;13.532;2023-07-09T13:46:43;7.28;;;4.65;;
52480;SDS011;38393;52.404;13.532;2023-07-09T13:49:12;6.43;;;4.63;;
52480;SDS011;38393;52.404;13.532;2023-07-09T13:51:40;6.93;;;5.45;;
52480;SDS011;38393;52.404;13.532;2023-07-09T13:54:14;5.28;;;4.10;;
52480;SDS011;38393;52.404;13.532;2023-07-09T13:56:42;6.38;;;4.13;;
52480;SDS011;38393;52.404;13.532;2023-07-09T13:59:12;9.15;;;5.00;;
52480;SDS011;38393;52.404;13.532;2023-07-09T14:01:39;6.25;;;4.80;;
52480;SDS011;38393;52.404;13.532;2023-07-09T14:04:04;8.13;;;4.50;;
52480;SDS011;38393;52.404;13.532;2023-07-09T14:06:30;5.25;;;4.47;;
52480;SDS011;38393;52.404;13.532;2023-07-09T14:08:55;6.18;;;4.45;;
52480;SDS011;38393;52.404;13.532;2023-07-09T14:11:20;6.30;;;4.40;;
52480;SDS011;38393;52.404;13.532;2023-07-09T14:13:46;7.82;;;4.13;;
52480;SDS011;38393;52.404;13.532;2023-07-09T14:16:12;7.93;;;4.30;;
52480;SDS011;38393;52.404;13.532;2023-07-09T14:18:40;7.13;;;4.22;;
52480;SDS011;38393;52.404;13.532;2023-07-09T14:21:10;6.38;;;4.30;;
52480;SDS011;38393;52.404;13.532;2023-07-09T14:23:38;6.35;;;4.65;;
52480;SDS011;38393;52.404;13.532;2023-07-09T14:26:04;4.80;;;4.28;;
52480;SDS011;38393;52.404;13.532;2023-07-09T14:28:29;7.88;;;4.32;;
52480;SDS011;38393;52.404;13.532;2023-07-09T14:30:56;7.40;;;4.13;;
52480;SDS011;38393;52.404;13.532;2023-07-09T14:33:21;5.20;;;4.05;;
52480;SDS011;38393;52.404;13.532;2023-07-09T14:35:47;7.18;;;4.70;;
52480;SDS011;38393;52.404;13.532;2023-07-09T14:40:44;6.45;;;3.83;;
52480;SDS011;38393;52.404;13.532;2023-07-09T14:43:11;10.07;;;4.60;;
52480;SDS011;38393;52.404;13.532;2023-07-09T14:45:36;6.40;;;4.35;;
52480;SDS011;38393;52.404;13.532;2023-07-09T14:48:07;5.72;;;4.32;;
52480;SDS011;38393;52.404;13.532;2023-07-09T14:50:37;5.10;;;4.13;;
52480;SDS011;38393;52.404;13.532;2023-07-09T14:53:03;7.95;;;4.35;;
52480;SDS011;38393;52.404;13.532;2023-07-09T14:55:37;7.38;;;4.32;;
52480;SDS011;38393;52.404;13.532;2023-07-09T14:58:04;4.78;;;3.85;;
52480;SDS011;38393;52.404;13.532;2023-07-09T15:00:40;6.55;;;4.05;;
52480;SDS011;38393;52.404;13.532;2023-07-09T15:03:07;6.97;;;4.28;;
52480;SDS011;38393;52.404;13.532;2023-07-09T15:05:34;5.25;;;4.13;;
52480;SDS011;38393;52.404;13.532;2023-07-09T15:08:00;6.80;;;4.03;;
52480;SDS011;38393;52.404;13.532;2023-07-09T15:10:31;4.80;;;4.03;;
52480;SDS011;38393;52.404;13.532;2023-07-09T15:12:56;5.43;;;4.05;;